sensor_id;sensor_type;location;lat;lon;timestamp;temperature;humidity
3256;DHT22;1640;48.504;9.224;2022-08-19T00:01:41;19.70;99.90
3256;DHT22;1640;48.504;9.224;2022-08-19T00:04:11;19.70;99.90
3256;DHT22;1640;48.504;9.224;2022-08-19T00:06:41;19.70;99.90
3256;DHT22;1640;48.504;9.224;2022-08-19T00:09:13;19.70;99.90
3256;DHT22;1640;48.504;9.224;2022-08-19T00:11:41;19.70;99.90
3256;DHT22;1640;48.504;9.224;2022-08-19T00:14:11;19.60;99.90
3256;DHT22;1640;48.504;9.224;2022-08-19T00:16:40;19.60;99.90
3256;DHT22;1640;48.504;9.224;2022-08-19T00:19:09;19.60;99.90
3256;DHT22;1640;48.504;9.224;2022-08-19T00:21:37;19.60;99.90
3256;DHT22;1640;48.504;9.224;2022-08-19T00:24:06;19.60;99.90
3256;DHT22;1640;48.504;9.224;2022-08-19T00:26:36;19.60;99.90
3256;DHT22;1640;48.504;9.224;2022-08-19T00:29:05;19.50;99.90
3256;DHT22;1640;48.504;9.224;2022-08-19T00:31:46;19.50;99.90
3256;DHT22;1640;48.504;9.224;2022-08-19T00:34:14;19.50;99.90
3256;DHT22;1640;48.504;9.224;2022-08-19T00:36:42;19.40;99.90
3256;DHT22;1640;48.504;9.224;2022-08-19T00:39:10;19.40;99.90
3256;DHT22;1640;48.504;9.224;2022-08-19T00:41:40;19.40;99.90
3256;DHT22;1640;48.504;9.224;2022-08-19T00:44:11;19.40;99.90
3256;DHT22;1640;48.504;9.224;2022-08-19T00:46:42;19.50;99.90
3256;DHT22;1640;48.504;9.224;2022-08-19T00:49:14;19.40;99.90
3256;DHT22;1640;48.504;9.224;2022-08-19T00:51:43;19.40;99.90
3256;DHT22;1640;48.504;9.224;2022-08-19T00:54:12;19.40;99.90
3256;DHT22;1640;48.504;9.224;2022-08-19T00:56:42;19.40;99.90
3256;DHT22;1640;48.504;9.224;2022-08-19T00:59:11;19.40;99.90
3256;DHT22;1640;48.504;9.224;2022-08-19T01:01:41;19.40;99.90
3256;DHT22;1640;48.504;9.224;2022-08-19T01:04:09;19.40;99.90
3256;DHT22;1640;48.504;9.224;2022-08-19T01:06:38;19.40;99.90
3256;DHT22;1640;48.504;9.224;2022-08-19T01:09:08;19.40;99.90
3256;DHT22;1640;48.504;9.224;2022-08-19T01:11:40;19.40;99.90
3256;DHT22;1640;48.504;9.224;2022-08-19T01:14:10;19.40;99.90
3256;DHT22;1640;48.504;9.224;2022-08-19T01:16:40;19.40;99.90
3256;DHT22;1640;48.504;9.224;2022-08-19T01:19:15;19.40;99.90
3256;DHT22;1640;48.504;9.224;2022-08-19T01:21:48;19.40;99.90
3256;DHT22;1640;48.504;9.224;2022-08-19T01:24:20;19.30;99.90
3256;DHT22;1640;48.504;9.224;2022-08-19T01:26:48;19.30;99.90
3256;DHT22;1640;48.504;9.224;2022-08-19T01:29:16;19.30;99.90
3256;DHT22;1640;48.504;9.224;2022-08-19T01:31:44;19.30;99.90
3256;DHT22;1640;48.504;9.224;2022-08-19T01:34:11;19.30;99.90
3256;DHT22;1640;48.504;9.224;2022-08-19T01:36:43;19.30;99.90
3256;DHT22;1640;48.504;9.224;2022-08-19T01:39:14;19.30;99.90
3256;DHT22;1640;48.504;9.224;2022-08-19T01:41:43;19.30;99.90
3256;DHT22;1640;48.504;9.224;2022-08-19T01:44:11;19.30;99.90
3256;DHT22;1640;48.504;9.224;2022-08-19T01:46:39;19.30;99.90
3256;DHT22;1640;48.504;9.224;2022-08-19T01:49:08;19.40;99.90
3256;DHT22;1640;48.504;9.224;2022-08-19T01:51:36;19.40;99.90
3256;DHT22;1640;48.504;9.224;2022-08-19T01:54:04;19.30;99.90
3256;DHT22;1640;48.504;9.224;2022-08-19T01:56:31;19.30;99.90
3256;DHT22;1640;48.504;9.224;2022-08-19T01:59:03;19.30;99.90
3256;DHT22;1640;48.504;9.224;2022-08-19T02:01:31;19.30;99.90
3256;DHT22;1640;48.504;9.224;2022-08-19T02:04:01;19.30;99.90
3256;DHT22;1640;48.504;9.224;2022-08-19T02:06:29;19.30;99.90
3256;DHT22;1640;48.504;9.224;2022-08-19T02:08:57;19.40;99.90
3256;DHT22;1640;48.504;9.224;2022-08-19T02:11:27;19.40;99.90
3256;DHT22;1640;48.504;9.224;2022-08-19T02:13:58;19.30;99.90
3256;DHT22;1640;48.504;9.224;2022-08-19T02:16:28;19.30;99.90
3256;DHT22;1640;48.504;9.224;2022-08-19T02:18:57;19.30;99.90
3256;DHT22;1640;48.504;9.224;2022-08-19T02:21:27;19.30;99.90
3256;DHT22;1640;48.504;9.224;2022-08-19T02:23:55;19.30;99.90
3256;DHT22;1640;48.504;9.224;2022-08-19T02:26:23;19.30;99.90
3256;DHT22;1640;48.504;9.224;2022-08-19T02:28:53;19.30;99.90
3256;DHT22;1640;48.504;9.224;2022-08-19T02:31:24;19.30;99.90
3256;DHT22;1640;48.504;9.224;2022-08-19T02:33:54;19.30;99.90
3256;DHT22;1640;48.504;9.224;2022-08-19T02:36:23;19.30;99.90
3256;DHT22;1640;48.504;9.224;2022-08-19T02:38:51;19.20;99.90
3256;DHT22;1640;48.504;9.224;2022-08-19T02:41:20;19.30;99.90
3256;DHT22;1640;48.504;9.224;2022-08-19T02:43:48;19.30;99.90
3256;DHT22;1640;48.504;9.224;2022-08-19T02:46:17;19.20;99.90
3256;DHT22;1640;48.504;9.224;2022-08-19T02:48:48;19.20;99.90
3256;DHT22;1640;48.504;9.224;2022-08-19T02:51:18;19.20;99.90
3256;DHT22;1640;48.504;9.224;2022-08-19T02:53:46;19.20;99.90
3256;DHT22;1640;48.504;9.224;2022-08-19T02:56:14;19.20;99.90
3256;DHT22;1640;48.504;9.224;2022-08-19T02:58:42;19.20;99.90
3256;DHT22;1640;48.504;9.224;2022-08-19T03:01:11;19.20;99.90
3256;DHT22;1640;48.504;9.224;2022-08-19T03:03:38;19.20;99.90
3256;DHT22;1640;48.504;9.224;2022-08-19T03:06:09;19.20;99.90
3256;DHT22;1640;48.504;9.224;2022-08-19T03:08:39;19.20;99.90
3256;DHT22;1640;48.504;9.224;2022-08-19T03:11:12;19.20;99.90
3256;DHT22;1640;48.504;9.224;2022-08-19T03:13:40;19.20;99.90
3256;DHT22;1640;48.504;9.224;2022-08-19T03:16:09;19.20;99.90
3256;DHT22;1640;48.504;9.224;2022-08-19T03:18:37;19.20;99.90
3256;DHT22;1640;48.504;9.224;2022-08-19T03:21:05;19.20;99.90
3256;DHT22;1640;48.504;9.224;2022-08-19T03:23:34;19.20;99.90
3256;DHT22;1640;48.504;9.224;2022-08-19T03:26:05;19.20;99.90
3256;DHT22;1640;48.504;9.224;2022-08-19T03:28:33;19.20;99.90
3256;DHT22;1640;48.504;9.224;2022-08-19T03:31:03;19.30;99.90
3256;DHT22;1640;48.504;9.224;2022-08-19T03:33:33;19.20;99.90
3256;DHT22;1640;48.504;9.224;2022-08-19T03:36:04;19.10;99.90
3256;DHT22;1640;48.504;9.224;2022-08-19T03:38:34;19.10;99.90
3256;DHT22;1640;48.504;9.224;2022-08-19T03:41:08;19.10;99.90
3256;DHT22;1640;48.504;9.224;2022-08-19T03:43:37;19.10;99.90
3256;DHT22;1640;48.504;9.224;2022-08-19T03:46:10;19.10;99.90
3256;DHT22;1640;48.504;9.224;2022-08-19T03:48:38;19.00;99.90
3256;DHT22;1640;48.504;9.224;2022-08-19T03:51:08;19.00;99.90
3256;DHT22;1640;48.504;9.224;2022-08-19T03:53:43;19.00;99.90
3256;DHT22;1640;48.504;9.224;2022-08-19T03:56:12;19.00;99.90
3256;DHT22;1640;48.504;9.224;2022-08-19T03:58:40;19.00;99.90
3256;DHT22;1640;48.504;9.224;2022-08-19T04:01:09;19.00;99.90
3256;DHT22;1640;48.504;9.224;2022-08-19T04:03:38;19.00;99.90
3256;DHT22;1640;48.504;9.224;2022-08-19T04:06:12;19.00;99.90
3256;DHT22;1640;48.504;9.224;2022-08-19T04:08:41;19.00;99.90
3256;DHT22;1640;48.504;9.224;2022-08-19T04:11:10;19.00;99.90
3256;DHT22;1640;48.504;9.224;2022-08-19T04:13:40;19.00;99.90
3256;DHT22;1640;48.504;9.224;2022-08-19T04:16:08;19.00;99.90
3256;DHT22;1640;48.504;9.224;2022-08-19T04:18:38;19.00;99.90
3256;DHT22;1640;48.504;9.224;2022-08-19T04:21:08;19.00;99.90
3256;DHT22;1640;48.504;9.224;2022-08-19T04:23:35;19.00;99.90
3256;DHT22;1640;48.504;9.224;2022-08-19T04:26:03;19.00;99.90
3256;DHT22;1640;48.504;9.224;2022-08-19T04:28:31;19.00;99.90
3256;DHT22;1640;48.504;9.224;2022-08-19T04:31:00;19.00;99.90
3256;DHT22;1640;48.504;9.224;2022-08-19T04:33:27;19.00;99.90
3256;DHT22;1640;48.504;9.224;2022-08-19T04:35:55;19.10;99.90
3256;DHT22;1640;48.504;9.224;2022-08-19T04:38:24;19.10;99.90
3256;DHT22;1640;48.504;9.224;2022-08-19T04:40:52;19.10;99.90
3256;DHT22;1640;48.504;9.224;2022-08-19T04:43:45;19.10;99.90
3256;DHT22;1640;48.504;9.224;2022-08-19T04:46:16;19.10;99.90
3256;DHT22;1640;48.504;9.224;2022-08-19T04:48:44;19.10;99.90
3256;DHT22;1640;48.504;9.224;2022-08-19T04:51:13;19.20;99.90
3256;DHT22;1640;48.504;9.224;2022-08-19T04:53:41;19.10;99.90
3256;DHT22;1640;48.504;9.224;2022-08-19T04:56:12;19.10;99.90
3256;DHT22;1640;48.504;9.224;2022-08-19T04:58:42;19.20;99.90
3256;DHT22;1640;48.504;9.224;2022-08-19T05:01:11;19.10;99.90
3256;DHT22;1640;48.504;9.224;2022-08-19T05:03:41;19.20;99.90
3256;DHT22;1640;48.504;9.224;2022-08-19T05:06:13;19.20;99.90
3256;DHT22;1640;48.504;9.224;2022-08-19T05:08:42;19.20;99.90
3256;DHT22;1640;48.504;9.224;2022-08-19T05:11:12;19.30;99.90
3256;DHT22;1640;48.504;9.224;2022-08-19T05:13:41;19.30;99.90
3256;DHT22;1640;48.504;9.224;2022-08-19T05:16:10;19.30;99.90
3256;DHT22;1640;48.504;9.224;2022-08-19T05:18:38;19.40;99.90
3256;DHT22;1640;48.504;9.224;2022-08-19T05:21:26;19.40;99.90
3256;DHT22;1640;48.504;9.224;2022-08-19T05:24:11;19.30;99.90
3256;DHT22;1640;48.504;9.224;2022-08-19T05:26:41;19.40;99.90
3256;DHT22;1640;48.504;9.224;2022-08-19T05:29:09;19.40;99.90
3256;DHT22;1640;48.504;9.224;2022-08-19T05:31:37;19.40;99.90
3256;DHT22;1640;48.504;9.224;2022-08-19T05:34:05;19.40;99.90
3256;DHT22;1640;48.504;9.224;2022-08-19T05:36:37;19.40;99.90
3256;DHT22;1640;48.504;9.224;2022-08-19T05:39:06;19.40;99.90
3256;DHT22;1640;48.504;9.224;2022-08-19T05:41:34;19.30;99.90
3256;DHT22;1640;48.504;9.224;2022-08-19T05:44:04;19.30;99.90
3256;DHT22;1640;48.504;9.224;2022-08-19T05:46:35;19.40;99.90
3256;DHT22;1640;48.504;9.224;2022-08-19T05:49:04;19.40;99.90
3256;DHT22;1640;48.504;9.224;2022-08-19T05:51:35;19.40;99.90
3256;DHT22;1640;48.504;9.224;2022-08-19T05:54:04;19.50;99.90
3256;DHT22;1640;48.504;9.224;2022-08-19T05:56:34;19.60;99.90
3256;DHT22;1640;48.504;9.224;2022-08-19T05:59:04;19.60;99.90
3256;DHT22;1640;48.504;9.224;2022-08-19T06:01:34;19.60;99.90
3256;DHT22;1640;48.504;9.224;2022-08-19T06:04:04;19.60;99.90
3256;DHT22;1640;48.504;9.224;2022-08-19T06:06:35;19.60;99.90
3256;DHT22;1640;48.504;9.224;2022-08-19T06:09:04;19.60;99.90
3256;DHT22;1640;48.504;9.224;2022-08-19T06:11:34;19.60;99.90
3256;DHT22;1640;48.504;9.224;2022-08-19T06:14:04;19.70;99.90
3256;DHT22;1640;48.504;9.224;2022-08-19T06:16:34;19.70;99.90
3256;DHT22;1640;48.504;9.224;2022-08-19T06:19:05;19.70;99.90
3256;DHT22;1640;48.504;9.224;2022-08-19T06:21:36;19.70;99.90
3256;DHT22;1640;48.504;9.224;2022-08-19T06:24:05;19.80;99.90
3256;DHT22;1640;48.504;9.224;2022-08-19T06:26:34;19.80;99.90
3256;DHT22;1640;48.504;9.224;2022-08-19T06:29:02;19.70;99.90
3256;DHT22;1640;48.504;9.224;2022-08-19T06:31:33;19.70;99.90
3256;DHT22;1640;48.504;9.224;2022-08-19T06:34:03;19.80;99.90
3256;DHT22;1640;48.504;9.224;2022-08-19T06:36:34;19.80;99.90
3256;DHT22;1640;48.504;9.224;2022-08-19T06:39:03;19.70;99.90
3256;DHT22;1640;48.504;9.224;2022-08-19T06:41:34;19.70;99.90
3256;DHT22;1640;48.504;9.224;2022-08-19T06:44:03;19.70;99.90
3256;DHT22;1640;48.504;9.224;2022-08-19T06:46:31;19.60;99.90
3256;DHT22;1640;48.504;9.224;2022-08-19T06:48:59;19.70;99.90
3256;DHT22;1640;48.504;9.224;2022-08-19T06:51:27;19.50;99.90
3256;DHT22;1640;48.504;9.224;2022-08-19T06:53:59;19.50;99.90
3256;DHT22;1640;48.504;9.224;2022-08-19T06:56:30;19.50;99.90
3256;DHT22;1640;48.504;9.224;2022-08-19T06:59:00;19.50;99.90
3256;DHT22;1640;48.504;9.224;2022-08-19T07:01:27;19.50;99.90
3256;DHT22;1640;48.504;9.224;2022-08-19T07:03:56;19.60;99.90
3256;DHT22;1640;48.504;9.224;2022-08-19T07:06:23;19.60;99.90
3256;DHT22;1640;48.504;9.224;2022-08-19T07:08:51;19.60;99.90
3256;DHT22;1640;48.504;9.224;2022-08-19T07:11:20;19.70;99.90
3256;DHT22;1640;48.504;9.224;2022-08-19T07:13:48;19.70;99.90
3256;DHT22;1640;48.504;9.224;2022-08-19T07:16:17;19.60;99.90
3256;DHT22;1640;48.504;9.224;2022-08-19T07:18:45;19.60;99.90
3256;DHT22;1640;48.504;9.224;2022-08-19T07:21:16;19.50;99.90
3256;DHT22;1640;48.504;9.224;2022-08-19T07:23:45;19.50;99.90
3256;DHT22;1640;48.504;9.224;2022-08-19T07:26:14;19.50;99.90
3256;DHT22;1640;48.504;9.224;2022-08-19T07:28:44;19.50;99.90
3256;DHT22;1640;48.504;9.224;2022-08-19T07:31:13;19.40;99.90
3256;DHT22;1640;48.504;9.224;2022-08-19T07:33:42;19.40;99.90
3256;DHT22;1640;48.504;9.224;2022-08-19T07:36:11;19.40;99.90
3256;DHT22;1640;48.504;9.224;2022-08-19T07:38:41;19.40;99.90
3256;DHT22;1640;48.504;9.224;2022-08-19T07:41:11;19.40;99.90
3256;DHT22;1640;48.504;9.224;2022-08-19T07:43:40;19.50;99.90
3256;DHT22;1640;48.504;9.224;2022-08-19T07:46:11;19.50;99.90
3256;DHT22;1640;48.504;9.224;2022-08-19T07:48:41;19.50;99.90
3256;DHT22;1640;48.504;9.224;2022-08-19T07:51:10;19.50;99.90
3256;DHT22;1640;48.504;9.224;2022-08-19T07:53:38;19.40;99.90
3256;DHT22;1640;48.504;9.224;2022-08-19T07:56:06;19.30;99.90
3256;DHT22;1640;48.504;9.224;2022-08-19T07:58:37;19.30;99.90
3256;DHT22;1640;48.504;9.224;2022-08-19T08:01:07;19.20;99.90
3256;DHT22;1640;48.504;9.224;2022-08-19T08:03:37;19.10;99.90
3256;DHT22;1640;48.504;9.224;2022-08-19T08:06:23;19.10;99.90
3256;DHT22;1640;48.504;9.224;2022-08-19T08:09:08;19.20;99.90
3256;DHT22;1640;48.504;9.224;2022-08-19T08:11:45;19.10;99.90
3256;DHT22;1640;48.504;9.224;2022-08-19T08:14:17;19.20;99.90
3256;DHT22;1640;48.504;9.224;2022-08-19T08:16:45;19.20;99.90
3256;DHT22;1640;48.504;9.224;2022-08-19T08:19:14;19.20;99.90
3256;DHT22;1640;48.504;9.224;2022-08-19T08:21:42;19.30;99.90
3256;DHT22;1640;48.504;9.224;2022-08-19T08:24:11;19.30;99.90
3256;DHT22;1640;48.504;9.224;2022-08-19T08:26:39;19.20;99.90
3256;DHT22;1640;48.504;9.224;2022-08-19T08:29:08;19.20;99.90
3256;DHT22;1640;48.504;9.224;2022-08-19T08:31:37;19.20;99.90
3256;DHT22;1640;48.504;9.224;2022-08-19T08:34:05;19.30;99.90
3256;DHT22;1640;48.504;9.224;2022-08-19T08:36:36;19.30;99.90
3256;DHT22;1640;48.504;9.224;2022-08-19T08:39:07;19.30;99.90
3256;DHT22;1640;48.504;9.224;2022-08-19T08:41:39;19.30;99.90
3256;DHT22;1640;48.504;9.224;2022-08-19T08:44:13;19.30;99.90
3256;DHT22;1640;48.504;9.224;2022-08-19T08:46:44;19.20;99.90
3256;DHT22;1640;48.504;9.224;2022-08-19T08:49:24;19.10;99.90
3256;DHT22;1640;48.504;9.224;2022-08-19T08:52:00;19.10;99.90
3256;DHT22;1640;48.504;9.224;2022-08-19T08:54:33;19.10;99.90
3256;DHT22;1640;48.504;9.224;2022-08-19T08:57:06;19.10;99.90
3256;DHT22;1640;48.504;9.224;2022-08-19T08:59:38;19.10;99.90
3256;DHT22;1640;48.504;9.224;2022-08-19T09:02:07;19.10;99.90
3256;DHT22;1640;48.504;9.224;2022-08-19T09:04:36;19.00;99.90
3256;DHT22;1640;48.504;9.224;2022-08-19T09:07:19;19.00;99.90
3256;DHT22;1640;48.504;9.224;2022-08-19T09:09:51;19.00;99.90
3256;DHT22;1640;48.504;9.224;2022-08-19T09:12:24;19.00;99.90
3256;DHT22;1640;48.504;9.224;2022-08-19T09:14:58;19.00;99.90
3256;DHT22;1640;48.504;9.224;2022-08-19T09:17:30;19.10;99.90
3256;DHT22;1640;48.504;9.224;2022-08-19T09:20:01;19.10;99.90
3256;DHT22;1640;48.504;9.224;2022-08-19T09:22:33;19.00;99.90
3256;DHT22;1640;48.504;9.224;2022-08-19T09:25:00;19.00;99.90
3256;DHT22;1640;48.504;9.224;2022-08-19T09:27:28;19.00;99.90
3256;DHT22;1640;48.504;9.224;2022-08-19T09:29:56;19.00;99.90
3256;DHT22;1640;48.504;9.224;2022-08-19T09:32:24;19.00;99.90
3256;DHT22;1640;48.504;9.224;2022-08-19T09:34:53;18.90;99.90
3256;DHT22;1640;48.504;9.224;2022-08-19T09:37:24;18.90;99.90
3256;DHT22;1640;48.504;9.224;2022-08-19T09:39:54;18.90;99.90
3256;DHT22;1640;48.504;9.224;2022-08-19T09:42:23;18.90;99.90
3256;DHT22;1640;48.504;9.224;2022-08-19T09:44:50;19.00;99.90
3256;DHT22;1640;48.504;9.224;2022-08-19T09:47:18;19.00;99.90
3256;DHT22;1640;48.504;9.224;2022-08-19T09:49:46;19.00;99.90
3256;DHT22;1640;48.504;9.224;2022-08-19T09:52:15;19.10;99.90
3256;DHT22;1640;48.504;9.224;2022-08-19T09:54:43;19.10;99.90
3256;DHT22;1640;48.504;9.224;2022-08-19T09:57:13;19.10;99.90
3256;DHT22;1640;48.504;9.224;2022-08-19T09:59:40;19.20;99.90
3256;DHT22;1640;48.504;9.224;2022-08-19T10:02:09;19.20;99.90
3256;DHT22;1640;48.504;9.224;2022-08-19T10:04:36;19.30;99.90
3256;DHT22;1640;48.504;9.224;2022-08-19T10:07:22;19.30;99.90
3256;DHT22;1640;48.504;9.224;2022-08-19T10:09:49;19.40;99.90
3256;DHT22;1640;48.504;9.224;2022-08-19T10:12:18;19.40;99.90
3256;DHT22;1640;48.504;9.224;2022-08-19T10:14:46;19.40;99.90
3256;DHT22;1640;48.504;9.224;2022-08-19T10:17:14;19.40;99.90
3256;DHT22;1640;48.504;9.224;2022-08-19T10:19:42;19.40;99.90
3256;DHT22;1640;48.504;9.224;2022-08-19T10:22:09;19.50;99.90
3256;DHT22;1640;48.504;9.224;2022-08-19T10:24:42;19.50;99.90
3256;DHT22;1640;48.504;9.224;2022-08-19T10:27:09;19.50;99.90
3256;DHT22;1640;48.504;9.224;2022-08-19T10:29:40;19.50;99.90
3256;DHT22;1640;48.504;9.224;2022-08-19T10:32:09;19.50;99.90
3256;DHT22;1640;48.504;9.224;2022-08-19T10:34:37;19.50;99.90
3256;DHT22;1640;48.504;9.224;2022-08-19T10:37:06;19.40;99.90
3256;DHT22;1640;48.504;9.224;2022-08-19T10:39:35;19.40;99.90
3256;DHT22;1640;48.504;9.224;2022-08-19T10:42:05;19.40;99.90
3256;DHT22;1640;48.504;9.224;2022-08-19T10:44:33;19.50;99.90
3256;DHT22;1640;48.504;9.224;2022-08-19T10:47:04;19.40;99.90
3256;DHT22;1640;48.504;9.224;2022-08-19T10:49:31;19.50;99.90
3256;DHT22;1640;48.504;9.224;2022-08-19T10:52:19;19.40;99.90
3256;DHT22;1640;48.504;9.224;2022-08-19T10:55:01;19.50;99.90
3256;DHT22;1640;48.504;9.224;2022-08-19T10:57:46;19.50;99.90
3256;DHT22;1640;48.504;9.224;2022-08-19T11:00:14;19.40;99.90
3256;DHT22;1640;48.504;9.224;2022-08-19T11:02:43;19.30;99.90
3256;DHT22;1640;48.504;9.224;2022-08-19T11:05:12;19.30;99.90
3256;DHT22;1640;48.504;9.224;2022-08-19T11:07:41;19.30;99.90
3256;DHT22;1640;48.504;9.224;2022-08-19T11:10:10;19.30;99.90
3256;DHT22;1640;48.504;9.224;2022-08-19T11:12:40;19.30;99.90
3256;DHT22;1640;48.504;9.224;2022-08-19T11:15:09;19.30;99.90
3256;DHT22;1640;48.504;9.224;2022-08-19T11:17:38;19.30;99.90
3256;DHT22;1640;48.504;9.224;2022-08-19T11:20:11;19.30;99.90
3256;DHT22;1640;48.504;9.224;2022-08-19T11:22:40;19.30;99.90
3256;DHT22;1640;48.504;9.224;2022-08-19T11:25:09;19.30;99.90
3256;DHT22;1640;48.504;9.224;2022-08-19T11:27:39;19.30;99.90
3256;DHT22;1640;48.504;9.224;2022-08-19T11:30:10;19.30;99.90
3256;DHT22;1640;48.504;9.224;2022-08-19T11:32:39;19.30;99.90
3256;DHT22;1640;48.504;9.224;2022-08-19T11:35:07;19.30;99.90
3256;DHT22;1640;48.504;9.224;2022-08-19T11:37:38;19.30;99.90
3256;DHT22;1640;48.504;9.224;2022-08-19T11:40:08;19.30;99.90
3256;DHT22;1640;48.504;9.224;2022-08-19T11:42:35;19.30;99.90
3256;DHT22;1640;48.504;9.224;2022-08-19T11:45:22;19.40;99.90
3256;DHT22;1640;48.504;9.224;2022-08-19T11:47:50;19.50;99.90
3256;DHT22;1640;48.504;9.224;2022-08-19T11:50:18;19.60;99.90
3256;DHT22;1640;48.504;9.224;2022-08-19T11:52:47;19.60;99.90
3256;DHT22;1640;48.504;9.224;2022-08-19T11:55:15;19.50;99.90
3256;DHT22;1640;48.504;9.224;2022-08-19T11:57:43;19.60;99.90
3256;DHT22;1640;48.504;9.224;2022-08-19T12:00:13;19.60;99.90
3256;DHT22;1640;48.504;9.224;2022-08-19T12:02:41;19.60;99.90
3256;DHT22;1640;48.504;9.224;2022-08-19T12:05:10;19.60;99.90
3256;DHT22;1640;48.504;9.224;2022-08-19T12:07:37;19.60;99.90
3256;DHT22;1640;48.504;9.224;2022-08-19T12:10:07;19.70;99.90
3256;DHT22;1640;48.504;9.224;2022-08-19T12:12:35;19.80;99.90
3256;DHT22;1640;48.504;9.224;2022-08-19T12:15:09;19.80;99.90
3256;DHT22;1640;48.504;9.224;2022-08-19T12:17:38;19.70;99.90
3256;DHT22;1640;48.504;9.224;2022-08-19T12:20:07;19.70;99.90
3256;DHT22;1640;48.504;9.224;2022-08-19T12:22:37;19.60;99.90
3256;DHT22;1640;48.504;9.224;2022-08-19T12:25:08;19.70;99.90
3256;DHT22;1640;48.504;9.224;2022-08-19T12:27:36;19.70;99.90
3256;DHT22;1640;48.504;9.224;2022-08-19T12:30:05;19.70;99.90
3256;DHT22;1640;48.504;9.224;2022-08-19T12:32:34;19.70;99.90
3256;DHT22;1640;48.504;9.224;2022-08-19T12:35:02;19.80;99.90
3256;DHT22;1640;48.504;9.224;2022-08-19T12:37:30;19.80;99.90
3256;DHT22;1640;48.504;9.224;2022-08-19T12:39:59;19.80;99.90
3256;DHT22;1640;48.504;9.224;2022-08-19T12:42:28;19.80;99.90
3256;DHT22;1640;48.504;9.224;2022-08-19T12:44:56;19.80;99.90
3256;DHT22;1640;48.504;9.224;2022-08-19T12:47:24;19.90;99.90
3256;DHT22;1640;48.504;9.224;2022-08-19T12:49:53;19.90;99.90
3256;DHT22;1640;48.504;9.224;2022-08-19T12:52:24;19.90;99.90
3256;DHT22;1640;48.504;9.224;2022-08-19T12:54:55;20.00;99.90
3256;DHT22;1640;48.504;9.224;2022-08-19T12:57:24;20.00;99.90
3256;DHT22;1640;48.504;9.224;2022-08-19T12:59:54;20.10;99.90
3256;DHT22;1640;48.504;9.224;2022-08-19T13:02:22;20.20;99.90
3256;DHT22;1640;48.504;9.224;2022-08-19T13:04:50;20.30;99.90
3256;DHT22;1640;48.504;9.224;2022-08-19T13:07:17;20.30;99.90
3256;DHT22;1640;48.504;9.224;2022-08-19T13:09:45;20.30;99.90
3256;DHT22;1640;48.504;9.224;2022-08-19T13:12:12;20.30;99.90
3256;DHT22;1640;48.504;9.224;2022-08-19T13:14:40;20.30;99.90
3256;DHT22;1640;48.504;9.224;2022-08-19T13:17:09;20.40;99.90
3256;DHT22;1640;48.504;9.224;2022-08-19T13:19:37;20.50;99.90
3256;DHT22;1640;48.504;9.224;2022-08-19T13:22:06;20.50;99.90
3256;DHT22;1640;48.504;9.224;2022-08-19T13:24:33;20.50;99.90
3256;DHT22;1640;48.504;9.224;2022-08-19T13:27:03;20.60;99.90
3256;DHT22;1640;48.504;9.224;2022-08-19T13:29:30;20.70;99.90
3256;DHT22;1640;48.504;9.224;2022-08-19T13:32:17;20.70;99.90
3256;DHT22;1640;48.504;9.224;2022-08-19T13:35:03;20.80;0.50
3256;DHT22;1640;48.504;9.224;2022-08-19T13:37:31;20.70;2.80
3256;DHT22;1640;48.504;9.224;2022-08-19T13:40:12;20.60;99.90
3256;DHT22;1640;48.504;9.224;2022-08-19T13:42:42;20.70;99.90
3256;DHT22;1640;48.504;9.224;2022-08-19T13:45:14;20.60;99.90
3256;DHT22;1640;48.504;9.224;2022-08-19T13:47:47;20.60;99.90
3256;DHT22;1640;48.504;9.224;2022-08-19T13:50:17;20.50;99.90
3256;DHT22;1640;48.504;9.224;2022-08-19T13:52:45;20.40;99.90
3256;DHT22;1640;48.504;9.224;2022-08-19T13:55:14;20.30;99.90
3256;DHT22;1640;48.504;9.224;2022-08-19T13:57:42;20.30;99.90
3256;DHT22;1640;48.504;9.224;2022-08-19T14:00:13;20.10;99.90
3256;DHT22;1640;48.504;9.224;2022-08-19T14:02:46;20.10;99.90
3256;DHT22;1640;48.504;9.224;2022-08-19T14:05:15;20.10;99.90
3256;DHT22;1640;48.504;9.224;2022-08-19T14:07:43;20.10;99.90
3256;DHT22;1640;48.504;9.224;2022-08-19T14:10:12;20.10;99.90
3256;DHT22;1640;48.504;9.224;2022-08-19T14:12:40;20.10;99.90
3256;DHT22;1640;48.504;9.224;2022-08-19T14:15:10;20.10;99.90
3256;DHT22;1640;48.504;9.224;2022-08-19T14:17:39;20.00;99.90
3256;DHT22;1640;48.504;9.224;2022-08-19T14:20:09;20.00;99.90
3256;DHT22;1640;48.504;9.224;2022-08-19T14:22:40;19.90;99.90
3256;DHT22;1640;48.504;9.224;2022-08-19T14:25:10;19.80;99.90
3256;DHT22;1640;48.504;9.224;2022-08-19T14:27:39;19.90;99.90
3256;DHT22;1640;48.504;9.224;2022-08-19T14:30:10;19.80;99.90
3256;DHT22;1640;48.504;9.224;2022-08-19T14:32:38;19.80;99.90
3256;DHT22;1640;48.504;9.224;2022-08-19T14:35:08;19.80;99.90
3256;DHT22;1640;48.504;9.224;2022-08-19T14:37:36;19.90;99.90
3256;DHT22;1640;48.504;9.224;2022-08-19T14:40:05;19.90;99.90
3256;DHT22;1640;48.504;9.224;2022-08-19T14:42:33;19.90;99.90
3256;DHT22;1640;48.504;9.224;2022-08-19T14:45:02;19.90;99.90
3256;DHT22;1640;48.504;9.224;2022-08-19T14:47:31;19.80;99.90
3256;DHT22;1640;48.504;9.224;2022-08-19T14:49:59;19.70;99.90
3256;DHT22;1640;48.504;9.224;2022-08-19T14:52:28;19.70;99.90
3256;DHT22;1640;48.504;9.224;2022-08-19T14:54:56;19.70;99.90
3256;DHT22;1640;48.504;9.224;2022-08-19T14:57:23;19.60;99.90
3256;DHT22;1640;48.504;9.224;2022-08-19T14:59:51;19.50;99.90
3256;DHT22;1640;48.504;9.224;2022-08-19T15:02:19;19.50;99.90
3256;DHT22;1640;48.504;9.224;2022-08-19T15:04:47;19.50;99.90
3256;DHT22;1640;48.504;9.224;2022-08-19T15:07:15;19.50;99.90
3256;DHT22;1640;48.504;9.224;2022-08-19T15:09:44;19.50;99.90
3256;DHT22;1640;48.504;9.224;2022-08-19T15:12:11;19.50;99.90
3256;DHT22;1640;48.504;9.224;2022-08-19T15:14:39;19.40;99.90
3256;DHT22;1640;48.504;9.224;2022-08-19T15:17:08;19.50;99.90
3256;DHT22;1640;48.504;9.224;2022-08-19T15:19:36;19.50;99.90
3256;DHT22;1640;48.504;9.224;2022-08-19T15:22:03;19.60;99.90
3256;DHT22;1640;48.504;9.224;2022-08-19T15:24:31;19.70;99.90
3256;DHT22;1640;48.504;9.224;2022-08-19T15:27:02;19.80;99.90
3256;DHT22;1640;48.504;9.224;2022-08-19T15:29:31;19.80;99.90
3256;DHT22;1640;48.504;9.224;2022-08-19T15:31:59;20.00;99.90
3256;DHT22;1640;48.504;9.224;2022-08-19T15:34:26;20.20;99.90
3256;DHT22;1640;48.504;9.224;2022-08-19T15:36:56;20.40;99.90
3256;DHT22;1640;48.504;9.224;2022-08-19T15:39:25;20.60;99.90
3256;DHT22;1640;48.504;9.224;2022-08-19T15:41:53;20.80;0.50
3256;DHT22;1640;48.504;9.224;2022-08-19T15:44:22;21.10;7.80
3256;DHT22;1640;48.504;9.224;2022-08-19T15:46:50;21.20;15.60
3256;DHT22;1640;48.504;9.224;2022-08-19T15:49:18;21.20;14.80
3256;DHT22;1640;48.504;9.224;2022-08-19T15:51:48;21.10;14.20
3256;DHT22;1640;48.504;9.224;2022-08-19T15:54:19;21.00;12.20
3256;DHT22;1640;48.504;9.224;2022-08-19T15:56:48;20.90;14.00
3256;DHT22;1640;48.504;9.224;2022-08-19T15:59:36;20.90;11.40
3256;DHT22;1640;48.504;9.224;2022-08-19T16:02:23;20.90;9.90
3256;DHT22;1640;48.504;9.224;2022-08-19T16:05:13;20.90;8.90
3256;DHT22;1640;48.504;9.224;2022-08-19T16:07:58;21.10;9.30
3256;DHT22;1640;48.504;9.224;2022-08-19T16:10:26;21.20;13.10
3256;DHT22;1640;48.504;9.224;2022-08-19T16:12:55;21.30;16.30
3256;DHT22;1640;48.504;9.224;2022-08-19T16:15:26;21.40;17.10
3256;DHT22;1640;48.504;9.224;2022-08-19T16:17:54;21.60;17.50
3256;DHT22;1640;48.504;9.224;2022-08-19T16:20:22;21.70;23.30